の過去48時間の天気

Arhangel'Sk

現在時刻: 9/28 11:33 MSK (9/28 08:33 UTC) 以下の時間は現地時間です。

過去48時間のMETAR気象情報
時間 風向 風速(m/s) 視程 気温(℃) 湿度(%) 気圧(hPa) 天気現象
28 11:00 南南東 3 10km以上 13 82 1028
28 10:30 南東 3 10km以上 12 88 1028
28 10:00 南東 3 10km以上 11 94 1028
28 09:30 南南東 3 10km以上 11 94 1029
28 09:00 南東 3 10km以上 11 94 1029
28 08:30 南東 3 8000m 10 100 1029
28 08:00 南東 2 3100m 10 100 1029 もや
28 07:30 南東 2 2600m 10 100 1029 もや
28 07:00 南東 2 3800m 10 100 1029 もや
28 06:30 東南東 2 2900m 10 100 1028 もや
28 06:00 東南東 3 4800m 10 100 1028 もや
28 05:30 東南東 3 5000m 10 100 1029 もや
28 05:00 不定 1 800m 10 100 1029
28 04:30 2 1200m 10 100 1029 もや
28 04:00 2 1300m 10 100 1029 もや
28 03:30 2 2900m 11 94 1029 もや
28 03:00 東南東 3 5000m 11 94 1029 もや
28 02:30 東南東 2 9000m 11 94 1029
28 02:00 東南東 3 9000m 11 94 1029
28 01:30 東南東 2 10km以上 11 94 1029
28 01:00 東南東 3 10km以上 11 94 1029
28 00:30 東南東 3 10km以上 11 94 1029
28 00:00 東南東 3 10km以上 11 94 1029
27 23:30 東南東 4 10km以上 11 94 1029
27 23:00 4 10km以上 11 94 1029
27 22:30 3 10km以上 11 94 1029
27 22:00 4 10km以上 11 94 1029
27 21:30 4 10km以上 11 94 1029
27 21:00 4 10km以上 11 94 1029
27 20:30 4 10km以上 11 94 1029
27 20:00 5 10km以上 11 94 1028
27 19:30 4 10km以上 11 94 1028
27 19:00 4 10km以上 11 94 1028
27 18:30 5 10km以上 11 94 1028
27 18:00 4 10km以上 12 88 1028
27 17:30 4 10km以上 12 88 1028
27 17:00 4 10km以上 12 88 1027
27 16:30 4 10km以上 13 88 1027
27 16:00 東北東 4 10km以上 14 82 1027
27 15:30 東北東 3 10km以上 15 77 1027
27 15:00 東北東 3 10km以上 15 77 1027
27 14:30 北東 4 10km以上 16 77 1027
27 14:00 東北東 3 10km以上 16 77 1026
27 13:30 東北東 2 10km以上 17 68 1026
27 13:00 東北東 2 10km以上 16 72 1026
27 12:30 東北東 2 10km以上 16 72 1026
27 12:00 2 10km以上 16 72 1026
27 11:30 不定 1 10km以上 15 77 1026
27 11:00 静穏 0 10km以上 15 77 1025
27 10:30 静穏 0 10km以上 15 72 1025
27 10:00 静穏 0 10km以上 14 82 1025
27 09:30 不定 1 10km以上 14 82 1025
27 09:00 不定 1 10km以上 13 82 1024
27 08:30 静穏 0 10km以上 13 88 1024
27 08:00 不定 1 10km以上 12 88 1024
27 07:30 不定 1 10km以上 12 88 1023
27 07:00 不定 1 10km以上 11 94 1023
27 06:30 不定 1 10km以上 12 88 1023
27 06:00 不定 1 10km以上 12 88 1023
27 05:30 不定 1 10km以上 12 88 1022
27 05:00 不定 1 10km以上 13 82 1022
27 04:30 不定 1 10km以上 13 82 1022
27 04:00 不定 1 10km以上 13 82 1022
27 03:30 南西 2 10km以上 13 82 1022
27 03:00 南西 2 10km以上 14 77 1021
27 02:30 南西 2 10km以上 14 77 1021
27 02:00 南西 2 10km以上 14 77 1021
27 01:30 南南西 3 10km以上 14 82 1021
27 01:00 南南西 3 10km以上 14 77 1021
27 00:30 南南西 2 10km以上 14 82 1020
27 00:00 南南西 1 10km以上 13 82 1020
26 23:30 不定 1 10km以上 12 88 1020
26 23:00 1 10km以上 12 88 1020
26 22:30 2 10km以上 12 88 1020
26 22:00 不定 1 10km以上 12 88 1020
26 21:30 2 10km以上 12 88 1020
26 21:00 2 10km以上 13 82 1020
26 20:30 2 10km以上 12 88 1020
26 20:00 2 10km以上 13 82 1020
26 19:30 2 10km以上 14 82 1020
26 19:00 2 10km以上 14 82 1020
26 18:30 3 10km以上 15 77 1020
26 18:00 3 10km以上 16 72 1020
26 17:30 3 10km以上 17 68 1020
26 17:00 3 10km以上 18 64 1020
26 16:30 2 10km以上 18 64 1020
26 16:00 南南西 2 10km以上 19 60 1020
26 15:30 2 10km以上 20 56 1020
26 15:00 3 10km以上 20 56 1020
26 14:30 2 10km以上 20 56 1020
26 14:00 2 10km以上 19 56 1020
26 13:30 3 10km以上 19 56 1020
26 13:00 3 10km以上 19 56 1020
26 12:30 2 10km以上 18 60 1020
26 12:00 3 10km以上 17 59 1020
ULAA 280800Z 15003MPS 100V190 9999 SCT010 13/10 Q1028 R08/CLRD68 NOSIG RMK QFE770/1027
ULAA 280730Z 14003MPS 090V170 9999 BKN006 12/10 Q1028 R08/CLRD68 NOSIG RMK QBB200 QFE770/1027
ULAA 280700Z 13003MPS 090V170 9999 OVC004 11/10 Q1028 R08/CLRD68 NOSIG RMK QBB140 QFE770/1027
ULAA 280630Z 15003MPS 100V200 9999 OVC004 11/10 Q1029 R08/CLRD68 NOSIG RMK QBB120 QFE770/1027
ULAA 280600Z 14003MPS 090V170 9999 OVC004 11/10 Q1029 R08/190065 NOSIG RMK QBB130 QFE770/1027
ULAA 280530Z 14003MPS 090V180 8000 OVC003 10/10 Q1029 R08/190065 NOSIG RMK QBB100 QFE771/1028
ULAA 280500Z 13002MPS 090V190 3100 BR OVC002 10/10 Q1029 R08/190065 NOSIG RMK QBB080 QFE771/1028
ULAA 280430Z 14002MPS 090V180 2600 BR OVC002 10/10 Q1029 R08/190065 NOSIG RMK QBB080 QFE770/1027
ULAA 280400Z 13002MPS 100V160 3800 BR OVC002 10/10 Q1029 R08/190065 NOSIG RMK QBB080 QFE770/1027
ULAA 280330Z 12002MPS 090V150 2900 BR OVC002 10/10 Q1028 R08/190065 NOSIG RMK QBB080 QFE770/1027
ULAA 280300Z 12003MPS 090V160 4800 BR OVC002 10/10 Q1028 R08/190065 NOSIG RMK QBB080 QFE770/1027
ULAA 280230Z 12003MPS 090V150 5000 BR OVC002 10/10 Q1029 R08/190065 NOSIG RMK QBB080 QFE770/1027
ULAA 280200Z VRB01MPS 0800 R08/1800N FG VV002 10/10 Q1029 R08/190065 NOSIG RMK QBB070 QFE770/1027
ULAA 280130Z 09002MPS 060V120 1200 1100E R08/2000U BR OVC002 10/10 Q1029 R08/CLRD68 NOSIG RMK QBB060 QFE771/1028
ULAA 280100Z 08002MPS 1300 R08/P2000N BR OVC002 10/10 Q1029 R08/CLRD68 NOSIG RMK QBB070 QFE771/1028
ULAA 280030Z 10002MPS 070V150 2900 BR OVC002 11/10 Q1029 R08/CLRD68 NOSIG RMK QBB070 QFE771/1028
ULAA 280000Z 12003MPS 080V170 5000 BR OVC004 11/10 Q1029 R08/CLRD68 NOSIG RMK QBB120 QFE771/1028
ULAA 272330Z 12002MPS 080V170 9000 OVC004 11/10 Q1029 R08/CLRD68 NOSIG RMK QBB120 QFE771/1028
ULAA 272300Z 11003MPS 080V150 9000 OVC004 11/10 Q1029 R08/CLRD68 NOSIG RMK QBB120 QFE771/1028
ULAA 272230Z 11002MPS 080V140 9999 OVC004 11/10 Q1029 R08/CLRD68 NOSIG RMK QBB140 QFE771/1028
ULAA 272200Z 11003MPS 070V140 9999 OVC004 11/10 Q1029 R08/CLRD68 NOSIG RMK QBB140 QFE771/1028
ULAA 272130Z 12003MPS 070V140 9999 OVC005 11/10 Q1029 R08/CLRD68 NOSIG RMK QBB160 QFE771/1028
ULAA 272100Z 11003MPS 080V150 9999 OVC005 11/10 Q1029 R08/CLRD68 NOSIG RMK QBB150 QFE771/1028
ULAA 272030Z 11004MPS 070V140 9999 OVC004 11/10 Q1029 R08/CLRD68 NOSIG RMK QBB140 QFE771/1028
ULAA 272000Z 10004MPS 070V140 9999 OVC004 11/10 Q1029 R08/CLRD68 NOSIG RMK QBB140 QFE771/1028
ULAA 271930Z 10003MPS 070V130 9999 OVC004 11/10 Q1029 R08/CLRD68 NOSIG RMK QBB140 QFE771/1028
ULAA 271900Z 10004MPS 9999 OVC005 11/10 Q1029 R08/CLRD68 NOSIG RMK QBB150 QFE771/1028
ULAA 271830Z 09004MPS 050V140 9999 OVC005 11/10 Q1029 R08/CLRD68 NOSIG RMK QBB150 QFE771/1028
ULAA 271800Z 08004MPS 060V120 9999 OVC005 11/10 Q1029 R08/CLRD68 NOSIG RMK QBB160 QFE770/1027
ULAA 271730Z 09004MPS 9999 OVC005 11/10 Q1029 R08/CLRD68 NOSIG RMK QBB170 QFE770/1027
ULAA 271700Z 09005MPS 060V120 9999 OVC007 11/10 Q1028 R08/CLRD68 NOSIG RMK QFE770/1027
ULAA 271630Z 09004MPS 060V120 9999 OVC007 11/10 Q1028 R08/CLRD68 NOSIG RMK QFE770/1027
ULAA 271600Z 09004MPS 050V140 9999 OVC007 11/10 Q1028 R08/CLRD68 NOSIG RMK QFE770/1027
ULAA 271530Z 08005MPS 050V120 9999 OVC007 11/10 Q1028 R08/CLRD68 NOSIG RMK QFE770/1027
ULAA 271500Z 09004MPS 9999 OVC007 12/10 Q1028 R08/CLRD68 NOSIG RMK QFE770/1027
ULAA 271430Z 08004MPS 050V110 9999 BKN008 12/10 Q1028 R08/CLRD68 NOSIG RMK QFE770/1026
ULAA 271400Z 08004MPS 050V110 9999 SCT009 12/10 Q1027 R08/CLRD68 NOSIG RMK QFE770/1026
ULAA 271330Z 08004MPS 040V100 9999 FEW010 13/11 Q1027 R08/CLRD68 NOSIG RMK QFE769/1026
ULAA 271300Z 07004MPS 020V100 CAVOK 14/11 Q1027 R08/CLRD68 NOSIG RMK QFE769/1026
ULAA 271230Z 07003MPS 020V110 CAVOK 15/11 Q1027 R26/CLRD68 NOSIG RMK QFE769/1025
ULAA 271200Z 07003MPS 030V110 CAVOK 15/11 Q1027 R26/CLRD68 NOSIG RMK QFE768/1025
ULAA 271130Z 05004MPS 010V080 CAVOK 16/12 Q1027 R26/CLRD68 NOSIG RMK QFE768/1025
ULAA 271100Z 06003MPS 030V100 CAVOK 16/12 Q1026 R26/CLRD68 NOSIG RMK QFE768/1024
ULAA 271030Z 07002MPS 010V110 CAVOK 17/11 Q1026 R26/CLRD68 NOSIG RMK QFE768/1024
ULAA 271000Z 07002MPS 030V130 CAVOK 16/11 Q1026 R26/CLRD68 NOSIG RMK QFE768/1024
ULAA 270930Z 07002MPS 360V120 CAVOK 16/11 Q1026 R26/CLRD68 NOSIG RMK QFE768/1024
ULAA 270900Z 08002MPS 030V150 CAVOK 16/11 Q1026 R26/CLRD68 NOSIG RMK QFE768/1024
ULAA 270830Z VRB01MPS CAVOK 15/11 Q1026 R26/CLRD68 NOSIG RMK QFE768/1024
ULAA 270800Z 00000MPS CAVOK 15/11 Q1025 R26/CLRD68 NOSIG RMK QFE768/1024
ULAA 270730Z 00000MPS CAVOK 15/10 Q1025 R26/CLRD68 NOSIG RMK QFE767/1023
ULAA 270700Z 00000MPS CAVOK 14/11 Q1025 R26/CLRD68 NOSIG RMK QFE767/1023
ULAA 270630Z VRB01MPS CAVOK 14/11 Q1025 R26/CLRD68 NOSIG RMK QFE767/1023
ULAA 270600Z VRB01MPS CAVOK 13/10 Q1024 R26/CLRD68 NOSIG RMK QFE767/1022
ULAA 270530Z 00000MPS 9999 FEW030 13/11 Q1024 R26/CLRD68 NOSIG RMK QFE766/1022
ULAA 270500Z VRB01MPS 9999 FEW030 12/10 Q1024 R26/CLRD68 NOSIG RMK QFE766/1022
ULAA 270430Z VRB01MPS 9999 SCT030 12/10 Q1023 R26/CLRD68 NOSIG RMK QFE766/1021
ULAA 270400Z VRB01MPS 9999 SCT030 11/10 Q1023 R26/CLRD68 NOSIG RMK QFE766/1021
ULAA 270330Z VRB01MPS 9999 SCT030 12/10 Q1023 R26/CLRD68 NOSIG RMK QFE765/1021
ULAA 270300Z VRB01MPS 9999 SCT030 12/10 Q1023 R26/CLRD68 NOSIG RMK QFE765/1021
ULAA 270230Z VRB01MPS 9999 FEW030 12/10 Q1022 R26/CLRD68 NOSIG RMK QFE765/1020
ULAA 270200Z VRB01MPS 9999 FEW030 13/10 Q1022 R26/CLRD68 NOSIG RMK QFE765/1020
ULAA 270130Z VRB01MPS 9999 FEW030 13/10 Q1022 R26/CLRD68 NOSIG RMK QFE765/1020
ULAA 270100Z VRB01MPS 9999 FEW030 13/10 Q1022 R26/CLRD68 NOSIG RMK QFE765/1020
ULAA 270030Z 22002MPS 190V250 9999 FEW030 13/10 Q1022 R26/CLRD68 NOSIG RMK QFE765/1020
ULAA 270000Z 22002MPS 180V250 9999 FEW030 14/10 Q1021 R26/CLRD68 NOSIG RMK QFE764/1019
ULAA 262330Z 23002MPS 200V270 9999 FEW030 14/10 Q1021 R26/CLRD68 NOSIG RMK QFE764/1019
ULAA 262300Z 23002MPS 200V270 9999 FEW030 14/10 Q1021 R26/CLRD68 NOSIG RMK QFE764/1019
ULAA 262230Z 21003MPS 170V260 9999 FEW030 14/11 Q1021 R08/CLRD68 NOSIG RMK QFE765/1020
ULAA 262200Z 21003MPS 180V250 9999 FEW030 14/10 Q1021 R08/CLRD68 NOSIG RMK QFE764/1019
ULAA 262130Z 21002MPS 170V240 9999 FEW030 14/11 Q1020 R08/CLRD68 NOSIG RMK QFE764/1019
ULAA 262100Z 20001MPS CAVOK 13/10 Q1020 R08/CLRD68 NOSIG RMK QFE764/1019
ULAA 262030Z VRB01MPS CAVOK 12/10 Q1020 R08/CLRD68 NOSIG RMK QFE764/1019
ULAA 262000Z 18001MPS CAVOK 12/10 Q1020 R08/CLRD68 NOSIG RMK QFE764/1019
ULAA 261930Z 19002MPS 160V220 CAVOK 12/10 Q1020 R08/CLRD68 NOSIG RMK QFE764/1019
ULAA 261900Z VRB01MPS CAVOK 12/10 Q1020 R08/CLRD68 NOSIG RMK QFE764/1019
ULAA 261830Z 18002MPS CAVOK 12/10 Q1020 R08/CLRD68 NOSIG RMK QFE764/1019
ULAA 261800Z 18002MPS 150V210 CAVOK 13/10 Q1020 R08/CLRD68 NOSIG RMK QFE764/1019
ULAA 261730Z 17002MPS 100V210 CAVOK 12/10 Q1020 R08/CLRD68 NOSIG RMK QFE764/1019
ULAA 261700Z 18002MPS CAVOK 13/10 Q1020 R08/CLRD68 NOSIG RMK QFE764/1019
ULAA 261630Z 18002MPS 150V210 CAVOK 14/11 Q1020 R08/CLRD68 NOSIG RMK QFE764/1019
ULAA 261600Z 18002MPS 150V210 CAVOK 14/11 Q1020 R08/CLRD68 NOSIG RMK QFE764/1019
ULAA 261530Z 17003MPS 130V210 CAVOK 15/11 Q1020 R08/CLRD68 NOSIG RMK QFE764/1019
ULAA 261500Z 17003MPS 110V210 CAVOK 16/11 Q1020 R08/CLRD68 NOSIG RMK QFE764/1019
ULAA 261430Z 17003MPS 130V200 CAVOK 17/11 Q1020 R08/CLRD68 NOSIG RMK QFE764/1019
ULAA 261400Z 18003MPS 130V210 CAVOK 18/11 Q1020 R08/CLRD68 NOSIG RMK QFE764/1019
ULAA 261330Z 18002MPS 130V210 CAVOK 18/11 Q1020 R08/CLRD68 NOSIG RMK QFE764/1019
ULAA 261300Z 20002MPS 130V270 CAVOK 19/11 Q1020 R26/CLRD68 NOSIG RMK QFE763/1018
ULAA 261230Z 19002MPS 100V240 CAVOK 20/11 Q1020 R26/CLRD68 NOSIG RMK QFE763/1018
ULAA 261200Z 18003MPS 150V220 CAVOK 20/11 Q1020 R08/CLRD68 NOSIG RMK QFE764/1019
ULAA 261130Z 17002MPS 120V210 CAVOK 20/11 Q1020 R08/CLRD68 NOSIG RMK QFE764/1019
ULAA 261100Z 17002MPS 120V220 CAVOK 19/10 Q1020 R08/CLRD68 NOSIG RMK QFE764/1019
ULAA 261030Z 17003MPS 140V200 CAVOK 19/10 Q1020 R08/CLRD68 NOSIG RMK QFE764/1019
ULAA 261000Z 18003MPS 140V200 CAVOK 19/10 Q1020 R08/CLRD68 NOSIG RMK QFE764/1019
ULAA 260930Z 18002MPS 140V220 CAVOK 18/10 Q1020 R08/CLRD68 NOSIG RMK QFE764/1019
ULAA 260900Z 19003MPS 150V220 CAVOK 17/09 Q1020 R08/CLRD68 NOSIG RMK QFE764/1019